Time;durP1;ratioP1;P1;durP2;ratioP2;P2;SDS_P1;SDS_P2;PMS_P1;PMS_P2;Temp;Humidity;BMP_temperature;BMP_pressure;BME280_temperature;BME280_humidity;BME280_pressure;Samples;Min_cycle;Max_cycle;Signal;HPM_P1;HPM_P2
2021/12/13 00:01:34;;;;;;;5.40;3.95;;;;;;;;;;5104810;27;20050;-71
2021/12/13 00:04:01;;;;;;;8.52;4.32;;;;;;;;;;5109511;27;20062;-70
2021/12/13 00:06:31;;;;;;;12.18;4.10;;;;;;;;;;5088482;27;20090;-80
2021/12/13 00:09:03;;;;;;;8.50;4.47;;;;;;;;;;5067717;27;20124;-78
2021/12/13 00:11:33;;;;;;;6.72;4.40;;;;;;;;;;5087577;27;20054;-70
2021/12/13 00:14:27;;;;;;;11.95;4.88;;;;;;;;;;5084141;27;20498;-71
2021/12/13 00:17:21;;;;;;;7.18;4.22;;;;;;;;;;5084442;27;20065;-77
2021/12/13 00:19:56;;;;;;;7.60;4.47;;;;;;;;;;5085700;27;20491;-75
2021/12/13 00:22:32;;;;;;;6.60;4.30;;;;;;;;;;5076529;27;20311;-72
2021/12/13 00:25:04;;;;;;;6.63;3.92;;;;;;;;;;5110224;27;20487;-73
2021/12/13 00:27:32;;;;;;;6.50;4.28;;;;;;;;;;5107760;27;20483;-71
2021/12/13 00:30:49;;;;;;;9.93;4.05;;;;;;;;;;5098463;27;20050;-73
2021/12/13 00:33:40;;;;;;;7.72;3.90;;;;;;;;;;5045012;28;20060;-75
2021/12/13 00:36:17;;;;;;;11.45;4.18;;;;;;;;;;5038540;28;20452;-70
2021/12/13 00:38:51;;;;;;;12.48;4.25;;;;;;;;;;5031305;28;21090;-73
2021/12/13 00:41:23;;;;;;;8.07;3.67;;;;;;;;;;5052973;28;20109;-76
2021/12/13 00:44:06;;;;;;;5.60;3.30;;;;;;;;;;5052633;28;20106;-74
2021/12/13 00:46:36;;;;;;;6.40;3.75;;;;;;;;;;5049189;28;20067;-74
2021/12/13 00:49:08;;;;;;;7.32;4.25;;;;;;;;;;5054291;28;20620;-75
2021/12/13 00:51:40;;;;;;;8.52;4.00;;;;;;;;;;5029887;28;20083;-76
2021/12/13 00:54:39;;;;;;;6.13;3.90;;;;;;;;;;5057427;28;20053;-72
2021/12/13 00:57:26;;;;;;;4.95;3.30;;;;;;;;;;5009543;28;20071;-76
2021/12/13 01:00:03;;;;;;;9.90;3.72;;;;;;;;;;5052302;28;20056;-72
2021/12/13 01:02:39;;;;;;;6.93;3.42;;;;;;;;;;5051772;28;20399;-68
2021/12/13 01:05:13;;;;;;;6.90;3.70;;;;;;;;;;5053673;28;20718;-72
2021/12/13 01:07:56;;;;;;;;;;;;;;;;;;5053987;27;20384;-68
2021/12/13 01:10:48;;;;;;;7.47;3.88;;;;;;;;;;5111034;27;20391;-71
2021/12/13 01:13:18;;;;;;;7.18;3.38;;;;;;;;;;5110660;27;21036;-77
2021/12/13 01:16:22;;;;;;;8.32;3.67;;;;;;;;;;5090536;27;20051;-71
2021/12/13 01:19:49;;;;;;;6.85;3.25;;;;;;;;;;5110170;27;20700;-74
2021/12/13 01:22:23;;;;;;;8.33;3.83;;;;;;;;;;5093914;27;20051;-72
2021/12/13 01:27:28;;;;;;;5.93;3.58;;;;;;;;;;5107075;27;20518;-67
2021/12/13 01:29:54;;;;;;;8.48;3.20;;;;;;;;;;5089406;27;20079;-79
2021/12/13 01:32:21;;;;;;;4.95;3.15;;;;;;;;;;5110596;27;20051;-73
2021/12/13 01:34:47;;;;;;;3.97;3.03;;;;;;;;;;5087888;27;20063;-75
2021/12/13 01:37:16;;;;;;;6.10;3.33;;;;;;;;;;5109807;27;20055;-76
2021/12/13 01:39:52;;;;;;;4.60;2.90;;;;;;;;;;5090553;27;20065;-75
2021/12/13 01:42:32;;;;;;;4.97;3.25;;;;;;;;;;5090052;27;20537;-73
2021/12/13 01:45:04;;;;;;;4.63;3.20;;;;;;;;;;5111145;27;20077;-73
2021/12/13 01:47:37;;;;;;;7.35;3.20;;;;;;;;;;5086004;27;20096;-70
2021/12/13 01:50:17;;;;;;;4.57;3.07;;;;;;;;;;5103874;27;20466;-67
2021/12/13 01:52:45;;;;;;;5.75;3.22;;;;;;;;;;5085369;27;20297;-72
2021/12/13 01:55:22;;;;;;;4.97;3.17;;;;;;;;;;5105663;27;20055;-71
2021/12/13 01:57:56;;;;;;;7.20;2.80;;;;;;;;;;5082478;27;20055;-74
2021/12/13 02:01:08;;;;;;;5.35;2.83;;;;;;;;;;5087451;27;20054;-75
2021/12/13 02:03:20;;;;;;;6.18;3.05;;;;;;;;;;5083757;27;20217;-71
2021/12/13 02:05:49;;;;;;;5.32;3.15;;;;;;;;;;5105408;27;20051;-73
2021/12/13 02:08:17;;;;;;;6.35;2.90;;;;;;;;;;5105235;27;21124;-73
2021/12/13 02:10:48;;;;;;;6.47;3.10;;;;;;;;;;5106944;27;20403;-73
2021/12/13 02:13:22;;;;;;;5.22;2.90;;;;;;;;;;5088305;27;20047;-77
2021/12/13 02:18:41;;;;;;;5.43;2.78;;;;;;;;;;5099827;27;20154;-68
2021/12/13 02:21:24;;;;;;;4.97;3.05;;;;;;;;;;5084698;27;20056;-64
2021/12/13 02:23:59;;;;;;;7.30;3.00;;;;;;;;;;5101848;27;20069;-67
2021/12/13 02:26:28;;;;;;;5.43;2.80;;;;;;;;;;5096234;27;20128;-71
2021/12/13 02:29:03;;;;;;;4.75;2.70;;;;;;;;;;5081301;27;20086;-76
2021/12/13 02:31:34;;;;;;;5.00;2.80;;;;;;;;;;5107915;27;20065;-69
2021/12/13 02:34:05;;;;;;;5.05;2.50;;;;;;;;;;5097820;27;20088;-70
2021/12/13 02:36:48;;;;;;;6.70;2.72;;;;;;;;;;5101165;27;20349;-70
2021/12/13 02:39:19;;;;;;;4.88;2.58;;;;;;;;;;5078886;27;20054;-73
2021/12/13 02:41:45;;;;;;;4.32;2.90;;;;;;;;;;5064893;27;20051;-73
2021/12/13 02:44:27;;;;;;;3.67;2.60;;;;;;;;;;5101950;27;20054;-69
2021/12/13 02:46:57;;;;;;;5.65;2.80;;;;;;;;;;5077997;27;20055;-72
2021/12/13 02:49:23;;;;;;;5.15;2.60;;;;;;;;;;5067462;27;20042;-73
2021/12/13 02:52:01;;;;;;;3.42;2.70;;;;;;;;;;5100256;27;20489;-70
2021/12/13 02:54:37;;;;;;;3.80;2.80;;;;;;;;;;5100914;27;20057;-68
2021/12/13 02:57:20;;;;;;;6.28;2.60;;;;;;;;;;5092195;27;20529;-73
2021/12/13 02:59:57;;;;;;;4.97;2.55;;;;;;;;;;5099330;27;20055;-76
2021/12/13 03:02:27;;;;;;;5.28;2.60;;;;;;;;;;5077863;27;20453;-71
2021/12/13 03:04:53;;;;;;;6.38;2.85;;;;;;;;;;5079007;27;20056;-67
2021/12/13 03:07:22;;;;;;;6.18;2.67;;;;;;;;;;5059481;27;20068;-71
2021/12/13 03:09:52;;;;;;;4.78;3.00;;;;;;;;;;5097990;27;20601;-70
2021/12/13 03:12:22;;;;;;;7.85;3.28;;;;;;;;;;5097283;27;20047;-73
2021/12/13 03:14:53;;;;;;;5.63;2.80;;;;;;;;;;5058878;27;20073;-72
2021/12/13 03:17:33;;;;;;;4.68;2.78;;;;;;;;;;5096736;27;20148;-67
2021/12/13 03:20:15;;;;;;;6.40;3.00;;;;;;;;;;5081144;27;20047;-68
2021/12/13 03:22:47;;;;;;;4.68;2.88;;;;;;;;;;5063393;27;20176;-73
2021/12/13 03:25:37;;;;;;;6.63;2.55;;;;;;;;;;5100285;27;20428;-70
2021/12/13 03:28:42;;;;;;;5.97;2.67;;;;;;;;;;5094625;27;20051;-66
2021/12/13 03:31:15;;;;;;;5.85;2.70;;;;;;;;;;5009804;28;20143;-64
2021/12/13 03:33:57;;;;;;;5.70;3.30;;;;;;;;;;5008907;28;20056;-67
2021/12/13 03:36:42;;;;;;;5.13;2.90;;;;;;;;;;5025914;28;20052;-72
2021/12/13 03:39:11;;;;;;;6.10;3.00;;;;;;;;;;5023651;28;20064;-71
2021/12/13 03:41:42;;;;;;;7.38;3.50;;;;;;;;;;5022789;28;20089;-66
2021/12/13 03:44:14;;;;;;;6.78;3.10;;;;;;;;;;5019587;28;20399;-75
2021/12/13 03:46:41;;;;;;;10.27;3.22;;;;;;;;;;4991517;28;20068;-68
2021/12/13 03:49:09;;;;;;;4.43;2.65;;;;;;;;;;5008512;28;20137;-68
2021/12/13 03:51:39;;;;;;;5.88;3.42;;;;;;;;;;5030411;28;20050;-68
2021/12/13 03:54:08;;;;;;;8.13;3.25;;;;;;;;;;5023483;28;20661;-70
2021/12/13 03:56:40;;;;;;;7.50;3.78;;;;;;;;;;5021540;28;20053;-72
2021/12/13 03:59:28;;;;;;;9.77;3.85;;;;;;;;;;5021673;28;20530;-67
2021/12/13 04:01:59;;;;;;;6.22;3.25;;;;;;;;;;5043677;27;21285;-74
2021/12/13 04:04:43;;;;;;;5.78;3.53;;;;;;;;;;5098557;27;20088;-73
2021/12/13 04:07:16;;;;;;;6.07;3.60;;;;;;;;;;5091771;27;20130;-73
2021/12/13 04:09:46;;;;;;;10.10;4.00;;;;;;;;;;5097706;27;20128;-72
2021/12/13 04:12:15;;;;;;;10.77;4.32;;;;;;;;;;5063400;27;20052;-70
2021/12/13 04:14:52;;;;;;;9.60;4.38;;;;;;;;;;5095755;27;20047;-73
2021/12/13 04:17:45;;;;;;;11.52;4.78;;;;;;;;;;5095297;27;20841;-72
2021/12/13 04:20:21;;;;;;;8.30;4.13;;;;;;;;;;5064856;27;20055;-66
2021/12/13 04:22:52;;;;;;;17.10;4.80;;;;;;;;;;5079049;27;20095;-68
2021/12/13 04:25:22;;;;;;;9.20;4.82;;;;;;;;;;5076238;27;20487;-64
2021/12/13 04:27:57;;;;;;;11.32;4.55;;;;;;;;;;5096116;27;20131;-70
2021/12/13 04:30:31;;;;;;;9.18;4.50;;;;;;;;;;5095695;27;20522;-71
2021/12/13 04:33:00;;;;;;;;;;;;;;;;;;5077342;27;20164;-66
2021/12/13 04:35:28;;;;;;;10.68;4.88;;;;;;;;;;5095697;27;20371;-70
2021/12/13 04:37:57;;;;;;;9.40;4.55;;;;;;;;;;5089748;27;20086;-69
2021/12/13 04:40:33;;;;;;;15.07;5.20;;;;;;;;;;5092392;27;20131;-72
2021/12/13 04:43:08;;;;;;;14.40;5.38;;;;;;;;;;5076994;27;20522;-71
2021/12/13 04:45:38;;;;;;;17.38;5.95;;;;;;;;;;5075475;27;20582;-67
2021/12/13 04:48:17;;;;;;;8.52;4.90;;;;;;;;;;5100360;27;20103;-70
2021/12/13 04:50:52;;;;;;;11.52;4.75;;;;;;;;;;5081824;27;20043;-71
2021/12/13 04:53:30;;;;;;;11.68;5.75;;;;;;;;;;5084296;27;20059;-68
2021/12/13 04:56:00;;;;;;;11.32;4.95;;;;;;;;;;5079598;27;20080;-70
2021/12/13 04:58:28;;;;;;;10.65;4.10;;;;;;;;;;5079730;27;20054;-69
2021/12/13 05:00:58;;;;;;;9.35;4.07;;;;;;;;;;5099906;27;20760;-73
2021/12/13 05:03:29;;;;;;;6.85;4.97;;;;;;;;;;5083588;27;20082;-72
2021/12/13 05:05:59;;;;;;;7.55;4.40;;;;;;;;;;5080026;27;20044;-69
2021/12/13 05:08:26;;;;;;;7.60;4.10;;;;;;;;;;5097089;27;20044;-69
2021/12/13 05:10:53;;;;;;;10.93;3.83;;;;;;;;;;5100025;27;20139;-67
2021/12/13 05:13:24;;;;;;;9.40;4.18;;;;;;;;;;5082281;27;20051;-74
2021/12/13 05:15:56;;;;;;;8.52;4.18;;;;;;;;;;5080890;27;20054;-73
2021/12/13 05:18:28;;;;;;;6.15;3.38;;;;;;;;;;5094148;27;20134;-73
2021/12/13 05:21:06;;;;;;;12.63;3.75;;;;;;;;;;5082659;27;20254;-70
2021/12/13 05:23:33;;;;;;;8.85;3.58;;;;;;;;;;5098029;27;20964;-73
2021/12/13 05:26:07;;;;;;;6.35;3.42;;;;;;;;;;5082254;27;20046;-72
2021/12/13 05:29:01;;;;;;;6.25;3.58;;;;;;;;;;5077211;27;20051;-68
2021/12/13 05:31:28;;;;;;;9.00;3.65;;;;;;;;;;5061805;27;20048;-68
2021/12/13 05:34:02;;;;;;;7.32;4.10;;;;;;;;;;5081281;27;20528;-74
2021/12/13 05:36:32;;;;;;;9.23;3.65;;;;;;;;;;5097899;27;20406;-74
2021/12/13 05:39:01;;;;;;;7.78;3.67;;;;;;;;;;5104076;27;20518;-68
2021/12/13 05:41:29;;;;;;;5.93;3.30;;;;;;;;;;5104862;27;20062;-70
2021/12/13 05:43:59;;;;;;;6.18;3.35;;;;;;;;;;5104285;27;20489;-67
2021/12/13 05:46:37;;;;;;;7.03;3.05;;;;;;;;;;5079754;27;20051;-70
2021/12/13 05:49:07;;;;;;;4.53;2.92;;;;;;;;;;5066394;27;20803;-66
2021/12/13 05:51:35;;;;;;;7.50;2.92;;;;;;;;;;5102949;27;20106;-73
2021/12/13 05:54:07;;;;;;;8.13;2.83;;;;;;;;;;5104591;27;20050;-69
2021/12/13 05:57:04;;;;;;;4.53;2.67;;;;;;;;;;5081523;27;20694;-73
2021/12/13 05:59:34;;;;;;;5.07;2.50;;;;;;;;;;5065201;27;20056;-68
2021/12/13 06:02:14;;;;;;;8.18;2.72;;;;;;;;;;5085216;27;20091;-65
2021/12/13 06:05:08;;;;;;;7.20;3.15;;;;;;;;;;5064585;27;20066;-68
2021/12/13 06:07:38;;;;;;;5.28;2.92;;;;;;;;;;5081329;27;20099;-74
2021/12/13 06:10:18;;;;;;;7.15;2.65;;;;;;;;;;5077625;27;20047;-71
2021/12/13 06:12:59;;;;;;;5.80;3.13;;;;;;;;;;5079153;27;20054;-70
2021/12/13 06:15:33;;;;;;;6.43;2.92;;;;;;;;;;5107350;27;20048;-68
2021/12/13 06:18:05;;;;;;;10.23;3.15;;;;;;;;;;5084410;27;20053;-66
2021/12/13 06:20:33;;;;;;;6.43;2.95;;;;;;;;;;5090437;27;20518;-73
2021/12/13 06:23:28;;;;;;;5.97;3.00;;;;;;;;;;5085561;27;20056;-68
2021/12/13 06:26:05;;;;;;;5.97;2.90;;;;;;;;;;5101350;27;20077;-70
2021/12/13 06:28:41;;;;;;;8.48;3.40;;;;;;;;;;5099391;27;20396;-66
2021/12/13 06:31:18;;;;;;;7.97;3.67;;;;;;;;;;5080192;27;20069;-69
2021/12/13 06:33:56;;;;;;;8.27;3.30;;;;;;;;;;5063580;27;20169;-69
2021/12/13 06:36:41;;;;;;;7.28;3.22;;;;;;;;;;5097290;27;20070;-71
2021/12/13 06:39:08;;;;;;;12.13;3.90;;;;;;;;;;5100492;27;20356;-74
2021/12/13 06:41:45;;;;;;;8.85;3.78;;;;;;;;;;5104814;27;20065;-72
2021/12/13 06:44:29;;;;;;;10.00;4.05;;;;;;;;;;5103319;27;20178;-64
2021/12/13 06:47:03;;;;;;;11.27;3.97;;;;;;;;;;5071136;27;20101;-74
2021/12/13 06:49:50;;;;;;;11.52;3.88;;;;;;;;;;5087779;27;20200;-70
2021/12/13 06:52:16;;;;;;;12.30;3.90;;;;;;;;;;5107996;27;20136;-67
2021/12/13 06:54:42;;;;;;;8.15;3.60;;;;;;;;;;5106013;27;20051;-74
2021/12/13 06:57:31;;;;;;;10.93;3.83;;;;;;;;;;5085650;27;20130;-70
2021/12/13 07:00:26;;;;;;;14.32;4.38;;;;;;;;;;5101447;27;20154;-69
2021/12/13 07:03:08;;;;;;;10.35;4.10;;;;;;;;;;5071615;27;20487;-77
2021/12/13 07:05:45;;;;;;;12.50;4.28;;;;;;;;;;5108198;27;20160;-77
2021/12/13 07:08:17;;;;;;;11.20;4.72;;;;;;;;;;5087393;27;20238;-65
2021/12/13 07:11:05;;;;;;;10.95;4.60;;;;;;;;;;5107845;27;21255;-69
2021/12/13 07:13:37;;;;;;;10.73;4.70;;;;;;;;;;5108877;27;20058;-78
2021/12/13 07:16:16;;;;;;;12.98;5.32;;;;;;;;;;5094866;27;20065;-72
2021/12/13 07:18:48;;;;;;;14.13;4.93;;;;;;;;;;5111511;27;20757;-77
2021/12/13 07:21:24;;;;;;;15.00;5.70;;;;;;;;;;5091140;27;20051;-70
2021/12/13 07:24:09;;;;;;;11.88;5.70;;;;;;;;;;5110255;27;21015;-78
2021/12/13 07:26:43;;;;;;;18.52;5.82;;;;;;;;;;5092562;27;20661;-71
2021/12/13 07:29:19;;;;;;;14.20;5.97;;;;;;;;;;5111466;27;20287;-70
2021/12/13 07:32:00;;;;;;;11.98;5.90;;;;;;;;;;5123825;27;20138;-67
2021/12/13 07:34:28;;;;;;;11.00;6.22;;;;;;;;;;5128442;27;20122;-66
2021/12/13 07:36:59;;;;;;;11.70;5.47;;;;;;;;;;5112108;27;20697;-64
2021/12/13 07:39:31;;;;;;;25.42;6.85;;;;;;;;;;5115076;27;20049;-66
2021/12/13 07:42:01;;;;;;;19.88;6.05;;;;;;;;;;5129162;27;20103;-63
2021/12/13 07:44:30;;;;;;;12.68;6.85;;;;;;;;;;5106717;27;20058;-71
2021/12/13 07:47:04;;;;;;;22.08;9.68;;;;;;;;;;5074003;27;20063;-72
2021/12/13 07:49:34;;;;;;;16.13;6.82;;;;;;;;;;5094520;27;20127;-76
2021/12/13 07:52:03;;;;;;;19.30;9.50;;;;;;;;;;5098372;27;20372;-76
2021/12/13 07:54:38;;;;;;;12.73;7.53;;;;;;;;;;5113530;27;20055;-74
2021/12/13 07:57:14;;;;;;;15.68;7.40;;;;;;;;;;5073039;27;20126;-76
2021/12/13 07:59:40;;;;;;;15.43;8.00;;;;;;;;;;5098420;27;20186;-74
2021/12/13 08:02:27;;;;;;;11.55;6.78;;;;;;;;;;5111919;27;21470;-67
2021/12/13 08:05:13;;;;;;;18.42;6.90;;;;;;;;;;5112142;27;20047;-79
2021/12/13 08:07:49;;;;;;;15.15;7.05;;;;;;;;;;5087624;27;20066;-69
2021/12/13 08:10:34;;;;;;;16.77;6.47;;;;;;;;;;5093732;27;20620;-74
2021/12/13 08:13:13;;;;;;;15.57;6.95;;;;;;;;;;5086950;27;20629;-68
2021/12/13 08:16:06;;;;;;;20.83;7.10;;;;;;;;;;5111460;27;20056;-70
2021/12/13 08:18:34;;;;;;;15.50;6.95;;;;;;;;;;5108758;27;20055;-67
2021/12/13 08:21:05;;;;;;;19.10;7.03;;;;;;;;;;5102569;27;20496;-71
2021/12/13 08:23:40;;;;;;;19.63;6.53;;;;;;;;;;5081773;27;20160;-79
2021/12/13 08:26:11;;;;;;;19.23;6.78;;;;;;;;;;5122125;27;20650;-77
2021/12/13 08:28:44;;;;;;;13.50;7.07;;;;;;;;;;5092901;27;20081;-73
2021/12/13 08:31:22;;;;;;;21.35;7.57;;;;;;;;;;5096057;27;20059;-74
2021/12/13 08:33:52;;;;;;;12.85;6.28;;;;;;;;;;5115110;27;20089;-70
2021/12/13 08:36:33;;;;;;;35.03;8.77;;;;;;;;;;5103015;27;20067;-72
2021/12/13 08:39:20;;;;;;;22.38;8.27;;;;;;;;;;5097169;27;20177;-71
2021/12/13 08:41:51;;;;;;;19.42;7.82;;;;;;;;;;5094843;27;20151;-69
2021/12/13 08:44:29;;;;;;;19.50;7.88;;;;;;;;;;5098355;27;20043;-68
2021/12/13 08:47:06;;;;;;;20.23;6.85;;;;;;;;;;5110302;27;20052;-73
2021/12/13 08:49:46;;;;;;;22.92;7.60;;;;;;;;;;5094348;27;20402;-74
2021/12/13 08:52:30;;;;;;;17.50;7.00;;;;;;;;;;5097053;27;20576;-73
2021/12/13 08:55:02;;;;;;;14.07;6.35;;;;;;;;;;5082926;27;20105;-71
2021/12/13 08:57:53;;;;;;;15.98;7.72;;;;;;;;;;5113887;27;20055;-74
2021/12/13 09:00:25;;;;;;;19.88;7.88;;;;;;;;;;5096711;27;20047;-73
2021/12/13 09:03:14;;;;;;;26.42;7.78;;;;;;;;;;5085379;28;20055;-72
2021/12/13 09:05:50;;;;;;;33.10;8.63;;;;;;;;;;5085490;28;20055;-72
2021/12/13 09:08:24;;;;;;;19.40;7.07;;;;;;;;;;5091960;28;20071;-78
2021/12/13 09:11:02;;;;;;;19.90;7.30;;;;;;;;;;5099407;28;20052;-77
2021/12/13 09:13:53;;;;;;;20.58;7.63;;;;;;;;;;5093673;28;20044;-73
2021/12/13 09:16:28;;;;;;;23.08;7.45;;;;;;;;;;5093146;28;20056;-70
2021/12/13 09:19:17;;;;;;;21.20;7.65;;;;;;;;;;5094322;28;20058;-77
2021/12/13 09:21:48;;;;;;;23.23;7.47;;;;;;;;;;5083913;28;20046;-79
2021/12/13 09:24:30;;;;;;;21.95;7.43;;;;;;;;;;5085931;28;20059;-74
2021/12/13 09:27:22;;;;;;;21.67;7.40;;;;;;;;;;5065514;28;20055;-69
2021/12/13 09:29:55;;;;;;;16.40;7.68;;;;;;;;;;5069662;28;20056;-71
2021/12/13 09:32:24;;;;;;;16.35;7.45;;;;;;;;;;5083902;28;20046;-70
2021/12/13 09:35:14;;;;;;;16.90;6.68;;;;;;;;;;5091286;28;20515;-73
2021/12/13 09:37:40;;;;;;;18.70;7.18;;;;;;;;;;5081560;28;20052;-76
2021/12/13 09:40:07;;;;;;;17.58;6.75;;;;;;;;;;5095724;28;20055;-70
2021/12/13 09:42:48;;;;;;;13.88;5.57;;;;;;;;;;5094294;28;20048;-69
2021/12/13 09:45:28;;;;;;;13.75;5.90;;;;;;;;;;5093221;28;20477;-71
2021/12/13 09:47:55;;;;;;;15.80;6.10;;;;;;;;;;5091677;28;20090;-74
2021/12/13 09:50:31;;;;;;;14.82;5.95;;;;;;;;;;5083600;28;20059;-72
2021/12/13 09:53:02;;;;;;;15.02;5.82;;;;;;;;;;5089956;28;20348;-71
2021/12/13 09:55:43;;;;;;;12.88;5.10;;;;;;;;;;5080170;28;20047;-69
2021/12/13 09:58:25;;;;;;;10.55;5.32;;;;;;;;;;5087954;28;20156;-68
2021/12/13 10:00:58;;;;;;;12.80;5.07;;;;;;;;;;5080346;28;20085;-75
2021/12/13 10:03:53;;;;;;;16.52;5.45;;;;;;;;;;5091524;27;20408;-71
2021/12/13 10:06:23;;;;;;;;;;;;;;;;;;5100549;27;20047;-69
2021/12/13 10:09:01;;;;;;;11.25;5.03;;;;;;;;;;5102775;27;19974;-72
2021/12/13 10:11:38;;;;;;;10.40;4.82;;;;;;;;;;5079288;27;20068;-72
2021/12/13 10:14:08;;;;;;;13.15;5.07;;;;;;;;;;5108522;27;20043;-70
2021/12/13 10:16:37;;;;;;;13.02;3.90;;;;;;;;;;5096166;27;20058;-69
2021/12/13 10:19:10;;;;;;;6.38;3.80;;;;;;;;;;5106404;27;20058;-69
2021/12/13 10:21:40;;;;;;;6.90;3.92;;;;;;;;;;5106204;27;20169;-73
2021/12/13 10:24:29;;;;;;;9.90;4.63;;;;;;;;;;5098228;27;20108;-69
2021/12/13 10:27:00;;;;;;;11.77;5.18;;;;;;;;;;5077161;27;20063;-73
2021/12/13 10:29:28;;;;;;;10.77;4.93;;;;;;;;;;5097117;27;20060;-70
2021/12/13 10:32:02;;;;;;;14.75;6.22;;;;;;;;;;5100106;27;20047;-73
2021/12/13 10:34:34;;;;;;;;;;;;;;;;;;5109543;27;20126;-74
2021/12/13 10:37:11;;;;;;;9.98;5.15;;;;;;;;;;5079208;27;20046;-70
2021/12/13 10:39:45;;;;;;;11.57;5.35;;;;;;;;;;5098536;27;20610;-69
2021/12/13 10:42:20;;;;;;;13.53;5.90;;;;;;;;;;5100136;28;20508;-69
2021/12/13 10:44:47;;;;;;;12.43;5.47;;;;;;;;;;5099497;27;20158;-72
2021/12/13 10:47:24;;;;;;;20.33;6.10;;;;;;;;;;5112180;27;20058;-74
2021/12/13 10:49:53;;;;;;;14.75;6.30;;;;;;;;;;5110414;27;20047;-75
2021/12/13 10:52:25;;;;;;;17.17;6.35;;;;;;;;;;5107792;27;20039;-71
2021/12/13 10:54:56;;;;;;;14.57;5.88;;;;;;;;;;5106178;27;20051;-78
2021/12/13 10:57:31;;;;;;;13.80;6.13;;;;;;;;;;5106020;27;20056;-76
2021/12/13 11:00:00;;;;;;;14.18;6.13;;;;;;;;;;5091572;27;20491;-70
2021/12/13 11:02:32;;;;;;;16.30;6.07;;;;;;;;;;5104379;27;20066;-71
2021/12/13 11:05:04;;;;;;;13.75;6.55;;;;;;;;;;5101618;27;20117;-74
2021/12/13 11:07:31;;;;;;;20.13;6.30;;;;;;;;;;5098859;27;20057;-71
2021/12/13 11:09:59;;;;;;;15.65;6.00;;;;;;;;;;5077071;27;20059;-76
2021/12/13 11:12:33;;;;;;;15.20;6.53;;;;;;;;;;5078998;28;20067;-73
2021/12/13 11:15:05;;;;;;;13.38;5.97;;;;;;;;;;5100968;27;20043;-70
2021/12/13 11:17:34;;;;;;;15.38;6.45;;;;;;;;;;5100268;27;20079;-71
2021/12/13 11:20:09;;;;;;;14.32;5.88;;;;;;;;;;5094458;27;20043;-75
2021/12/13 11:22:36;;;;;;;12.20;5.65;;;;;;;;;;5093955;27;20181;-74
2021/12/13 11:25:14;;;;;;;15.60;5.70;;;;;;;;;;5107028;27;20055;-73
2021/12/13 11:27:40;;;;;;;9.98;4.70;;;;;;;;;;5088518;27;20051;-71
2021/12/13 11:30:16;;;;;;;10.38;4.70;;;;;;;;;;5099804;27;20058;-72
2021/12/13 11:33:20;;;;;;;14.25;4.05;;;;;;;;;;5097988;27;20055;-75
2021/12/13 11:36:07;;;;;;;13.38;4.68;;;;;;;;;;5087074;28;20047;-74
2021/12/13 11:38:52;;;;;;;;;;;;;;;;;;5099661;27;21076;-70
2021/12/13 11:41:37;;;;;;;9.45;3.42;;;;;;;;;;5090646;28;19920;-75
2021/12/13 11:44:31;;;;;;;13.05;4.10;;;;;;;;;;5099446;27;20135;-71
2021/12/13 11:47:33;;;;;;;7.70;3.20;;;;;;;;;;5104420;27;20051;-70
2021/12/13 11:50:34;;;;;;;15.52;3.65;;;;;;;;;;5093058;27;20056;-69
2021/12/13 11:53:31;;;;;;;7.90;3.10;;;;;;;;;;5100250;27;20088;-76
2021/12/13 11:56:19;;;;;;;11.32;3.65;;;;;;;;;;5098029;27;20044;-68
2021/12/13 11:59:11;;;;;;;18.15;3.70;;;;;;;;;;5088179;28;20051;-77
2021/12/13 12:02:11;;;;;;;18.55;5.20;;;;;;;;;;5099515;27;21401;-70
2021/12/13 12:05:08;;;;;;;10.90;4.40;;;;;;;;;;5078290;28;20061;-71
2021/12/13 12:07:57;;;;;;;8.52;3.65;;;;;;;;;;5079101;28;20501;-75
2021/12/13 12:10:51;;;;;;;6.80;3.92;;;;;;;;;;5076216;28;20161;-70
2021/12/13 12:14:01;;;;;;;8.63;3.42;;;;;;;;;;5078979;28;20050;-78
2021/12/13 12:16:28;;;;;;;8.90;3.25;;;;;;;;;;5070462;28;20933;-72
2021/12/13 12:19:15;;;;;;;7.97;2.67;;;;;;;;;;5084326;28;20064;-69
2021/12/13 12:21:48;;;;;;;6.43;2.92;;;;;;;;;;5077956;28;20055;-71
2021/12/13 12:24:20;;;;;;;4.53;2.38;;;;;;;;;;5072600;28;20051;-75
2021/12/13 12:26:51;;;;;;;8.15;2.80;;;;;;;;;;5071143;28;20060;-69
2021/12/13 12:29:23;;;;;;;4.30;2.65;;;;;;;;;;5077827;28;20056;-74
2021/12/13 12:31:58;;;;;;;4.90;2.85;;;;;;;;;;5078195;28;20035;-70
2021/12/13 12:34:25;;;;;;;8.00;3.17;;;;;;;;;;5079253;28;20052;-75
2021/12/13 12:36:57;;;;;;;7.93;2.75;;;;;;;;;;5082336;28;20052;-76
2021/12/13 12:39:42;;;;;;;11.75;4.05;;;;;;;;;;5079226;28;20127;-71
2021/12/13 12:42:34;;;;;;;7.13;3.08;;;;;;;;;;5071179;28;20075;-76
2021/12/13 12:45:09;;;;;;;5.28;3.38;;;;;;;;;;5048444;28;20561;-73
2021/12/13 12:47:35;;;;;;;7.70;4.05;;;;;;;;;;5063497;28;20166;-73
2021/12/13 12:50:14;;;;;;;13.10;4.00;;;;;;;;;;5076532;28;20142;-69
2021/12/13 12:52:54;;;;;;;8.40;3.80;;;;;;;;;;5067124;28;20056;-70
2021/12/13 12:55:37;;;;;;;8.48;4.97;;;;;;;;;;5072135;28;20056;-76
2021/12/13 12:58:15;;;;;;;11.55;4.40;;;;;;;;;;5074360;28;20122;-73
2021/12/13 13:00:44;;;;;;;7.78;3.92;;;;;;;;;;5074882;28;20063;-74
2021/12/13 13:03:21;;;;;;;10.13;4.95;;;;;;;;;;5060485;28;20091;-74
2021/12/13 13:05:48;;;;;;;13.75;5.07;;;;;;;;;;5088185;27;20716;-74
2021/12/13 13:08:31;;;;;;;16.35;5.03;;;;;;;;;;5100115;27;20084;-72
2021/12/13 13:13:47;;;;;;;15.13;6.47;;;;;;;;;;5102099;27;20381;-72
2021/12/13 13:16:25;;;;;;;9.85;4.75;;;;;;;;;;5094317;27;20089;-78
2021/12/13 13:18:53;;;;;;;11.60;5.28;;;;;;;;;;5076632;27;20048;-78
2021/12/13 13:21:20;;;;;;;6.53;3.58;;;;;;;;;;5093146;27;20055;-76
2021/12/13 13:23:51;;;;;;;6.97;3.90;;;;;;;;;;5091129;27;20058;-71
2021/12/13 13:26:18;;;;;;;9.48;3.80;;;;;;;;;;5102033;27;20054;-73
2021/12/13 13:28:53;;;;;;;9.05;4.03;;;;;;;;;;5089601;27;20861;-76
2021/12/13 13:31:37;;;;;;;8.77;5.10;;;;;;;;;;5104333;27;20053;-73
2021/12/13 13:34:31;;;;;;;9.82;4.45;;;;;;;;;;5107062;27;20066;-75
2021/12/13 13:37:11;;;;;;;10.77;4.00;;;;;;;;;;5087998;27;20086;-69
2021/12/13 13:39:51;;;;;;;8.30;3.95;;;;;;;;;;5094429;27;20083;-70
2021/12/13 13:42:27;;;;;;;12.63;5.07;;;;;;;;;;5093011;27;20048;-77
2021/12/13 13:44:58;;;;;;;14.55;6.97;;;;;;;;;;5099923;27;20560;-74
2021/12/13 13:47:26;;;;;;;10.55;5.22;;;;;;;;;;5090821;27;20500;-71
2021/12/13 13:49:54;;;;;;;7.28;4.13;;;;;;;;;;5103868;27;20478;-73
2021/12/13 13:52:29;;;;;;;9.50;4.47;;;;;;;;;;5093326;27;20521;-78
2021/12/13 13:54:59;;;;;;;8.63;3.88;;;;;;;;;;5104052;27;20056;-75
2021/12/13 13:57:31;;;;;;;8.68;4.10;;;;;;;;;;5088997;27;20198;-73
2021/12/13 13:59:58;;;;;;;13.65;4.72;;;;;;;;;;5096164;27;20108;-71
2021/12/13 14:02:35;;;;;;;18.70;7.53;;;;;;;;;;5096954;27;20055;-73
2021/12/13 14:05:06;;;;;;;8.27;4.22;;;;;;;;;;5112540;27;20096;-71
2021/12/13 14:07:34;;;;;;;10.60;5.65;;;;;;;;;;5085280;27;20051;-72
2021/12/13 14:10:11;;;;;;;12.82;6.13;;;;;;;;;;5088487;27;20505;-71
2021/12/13 14:12:45;;;;;;;8.63;4.22;;;;;;;;;;5111697;27;20051;-65
2021/12/13 14:15:28;;;;;;;7.60;3.22;;;;;;;;;;5106355;27;20048;-72
2021/12/13 14:18:14;;;;;;;7.50;3.22;;;;;;;;;;5104177;27;20123;-73
2021/12/13 14:20:45;;;;;;;5.32;2.90;;;;;;;;;;5111550;27;20415;-71
2021/12/13 14:23:28;;;;;;;13.00;3.22;;;;;;;;;;5090305;27;20109;-70
2021/12/13 14:26:00;;;;;;;7.03;3.75;;;;;;;;;;5109089;27;20103;-75
2021/12/13 14:28:29;;;;;;;14.02;3.63;;;;;;;;;;5105828;27;20052;-70
2021/12/13 14:30:56;;;;;;;9.07;3.63;;;;;;;;;;5087769;27;20117;-76
2021/12/13 14:33:30;;;;;;;8.63;4.10;;;;;;;;;;5109324;27;20100;-70
2021/12/13 14:36:05;;;;;;;7.53;3.90;;;;;;;;;;5111514;27;20147;-70
2021/12/13 14:38:32;;;;;;;6.45;3.63;;;;;;;;;;5108254;27;20079;-71
2021/12/13 14:41:03;;;;;;;8.52;4.25;;;;;;;;;;5090441;27;20055;-67
2021/12/13 14:43:34;;;;;;;6.40;3.00;;;;;;;;;;5111974;27;20051;-69
2021/12/13 14:46:07;;;;;;;10.30;3.08;;;;;;;;;;5106517;27;20055;-70
2021/12/13 14:48:33;;;;;;;10.32;3.35;;;;;;;;;;5110186;27;20047;-67
2021/12/13 14:51:03;;;;;;;8.73;2.80;;;;;;;;;;5090985;27;20062;-75
2021/12/13 14:53:33;;;;;;;7.78;2.60;;;;;;;;;;5105968;27;20488;-70
2021/12/13 14:56:22;;;;;;;6.65;2.70;;;;;;;;;;5089592;27;20085;-71
2021/12/13 14:58:55;;;;;;;7.35;2.50;;;;;;;;;;5106800;27;20052;-72
2021/12/13 15:01:26;;;;;;;8.13;3.10;;;;;;;;;;5113714;27;20054;-70
2021/12/13 15:04:03;;;;;;;11.90;2.63;;;;;;;;;;5115239;27;20140;-76
2021/12/13 15:06:37;;;;;;;5.75;2.40;;;;;;;;;;5089915;27;20139;-73
2021/12/13 15:09:13;;;;;;;11.60;2.97;;;;;;;;;;5090002;27;20058;-68
2021/12/13 15:11:48;;;;;;;6.68;2.80;;;;;;;;;;5064276;27;20059;-76
2021/12/13 15:14:39;;;;;;;9.05;2.70;;;;;;;;;;5107906;27;20413;-70
2021/12/13 15:17:23;;;;;;;5.80;2.42;;;;;;;;;;5094640;27;20052;-70
2021/12/13 15:19:54;;;;;;;8.52;3.08;;;;;;;;;;5102676;27;20109;-74
2021/12/13 15:22:21;;;;;;;7.40;3.15;;;;;;;;;;5111222;27;20054;-76
2021/12/13 15:24:47;;;;;;;10.23;2.90;;;;;;;;;;5111924;27;20142;-70
2021/12/13 15:27:23;;;;;;;7.35;4.00;;;;;;;;;;5068395;27;20126;-75
2021/12/13 15:30:06;;;;;;;6.38;2.90;;;;;;;;;;5089843;27;20046;-80
2021/12/13 15:32:47;;;;;;;5.78;2.90;;;;;;;;;;5114929;27;20426;-73
2021/12/13 15:35:16;;;;;;;9.13;3.30;;;;;;;;;;5094070;27;20051;-76
2021/12/13 15:37:48;;;;;;;10.27;3.40;;;;;;;;;;5109286;27;20142;-72
2021/12/13 15:40:31;;;;;;;7.38;3.22;;;;;;;;;;5107963;27;20054;-75